createdAt,value
2023-04-23T00:01:46.143Z,94836.44
2023-04-23T00:04:15.674Z,94829.72
2023-04-23T00:06:42.996Z,94831.31
2023-04-23T00:09:11.546Z,94814.03
2023-04-23T00:11:38.763Z,94824.19
2023-04-23T00:14:05.592Z,94827.31
2023-04-23T00:16:32.508Z,94826.53
2023-04-23T00:18:59.153Z,94827.66
2023-04-23T00:21:25.751Z,94822.19
2023-04-23T00:23:52.348Z,94822.56
2023-04-23T00:26:18.972Z,94816.31
2023-04-23T00:28:45.581Z,94815.88
2023-04-23T00:31:12.471Z,94812.34
2023-04-23T00:33:39.741Z,94822.88
2023-04-23T00:36:06.714Z,94817.41
2023-04-23T00:38:33.365Z,94814.66
2023-04-23T00:41:00.006Z,94820.50
2023-04-23T00:43:26.686Z,94809.91
2023-04-23T00:45:53.321Z,94815.41
2023-04-23T00:48:20.885Z,94809.16
2023-04-23T00:50:47.433Z,94812.25
2023-04-23T00:53:14.021Z,94811.44
2023-04-23T00:55:40.822Z,94809.88
2023-04-23T00:58:07.825Z,94814.88
2023-04-23T01:00:43.310Z,94812.91
2023-04-23T01:03:10.607Z,94808.94
2023-04-23T01:05:37.396Z,94806.94
2023-04-23T01:08:04.233Z,94808.44
2023-04-23T01:10:31.879Z,94809.97
2023-04-23T01:12:58.996Z,94804.41
2023-04-23T01:15:25.692Z,94804.00
2023-04-23T01:17:52.270Z,94800.06
2023-04-23T01:20:19.153Z,94803.16
2023-04-23T01:22:45.788Z,94805.47
2023-04-23T01:25:12.518Z,94809.38
2023-04-23T01:27:40.969Z,94802.69
2023-04-23T01:30:08.878Z,94802.25
2023-04-23T01:32:36.221Z,94812.75
2023-04-23T01:35:03.017Z,94806.88
2023-04-23T01:37:30.478Z,94809.19
2023-04-23T01:39:57.128Z,94816.16
2023-04-23T01:42:23.856Z,94814.59
2023-04-23T01:44:53.458Z,94807.91
2023-04-23T01:47:20.423Z,94806.31
2023-04-23T01:49:47.308Z,94810.56
2023-04-23T01:52:14.495Z,94803.88
2023-04-23T01:54:41.577Z,94800.38
2023-04-23T01:57:09.711Z,94805.84
2023-04-23T01:59:37.417Z,94805.03
2023-04-23T02:02:04.107Z,94795.25
2023-04-23T02:04:30.932Z,94796.81
2023-04-23T02:06:57.697Z,94805.03
2023-04-23T02:09:24.263Z,94802.66
2023-04-23T02:11:50.822Z,94797.19
2023-04-23T02:14:17.667Z,94802.66
2023-04-23T02:16:44.392Z,94807.34
2023-04-23T02:19:11.525Z,94796.41
2023-04-23T02:21:38.344Z,94800.66
2023-04-23T02:24:05.191Z,94795.97
2023-04-23T02:26:31.797Z,94794.84
2023-04-23T02:28:59.193Z,94793.25
2023-04-23T02:31:26.069Z,94793.25
2023-04-23T02:33:52.696Z,94795.97
2023-04-23T02:36:20.819Z,94794.63
2023-04-23T02:38:47.606Z,94792.81
2023-04-23T02:41:14.231Z,94799.06
2023-04-23T02:43:41.177Z,94804.53
2023-04-23T02:46:07.758Z,94799.44
2023-04-23T02:48:41.828Z,94796.28
2023-04-23T02:51:10.518Z,94794.34
2023-04-23T02:53:37.220Z,94795.47
2023-04-23T02:56:04.174Z,94797.78
2023-04-23T02:58:31.508Z,94798.50
2023-04-23T03:01:00.596Z,94810.59
2023-04-23T03:03:29.336Z,94799.19
2023-04-23T03:05:56.067Z,94801.50
2023-04-23T03:08:22.719Z,94804.94
2023-04-23T03:10:49.422Z,94798.59
2023-04-23T03:13:16.401Z,94809.13
2023-04-23T03:15:43.440Z,94820.78
2023-04-23T03:18:10.141Z,94818.75
2023-04-23T03:20:37.621Z,94815.97
2023-04-23T03:23:04.485Z,94818.59
2023-04-23T03:25:31.047Z,94819.78
2023-04-23T03:27:57.767Z,94814.66
2023-04-23T03:30:25.327Z,94815.03
2023-04-23T03:32:55.173Z,94810.69
2023-04-23T03:35:22.090Z,94818.91
2023-04-23T03:37:49.867Z,94817.31
2023-04-23T03:40:16.719Z,94819.63
2023-04-23T03:42:47.145Z,94826.69
2023-04-23T03:45:16.291Z,94815.31
2023-04-23T03:47:44.045Z,94819.19
2023-04-23T03:50:11.734Z,94831.22
2023-04-23T03:52:38.911Z,94824.22
2023-04-23T03:55:10.053Z,94837.06
2023-04-23T03:57:42.187Z,94834.25
2023-04-23T04:00:25.543Z,94841.66
2023-04-23T04:02:52.358Z,94838.13
2023-04-23T04:05:20.920Z,94844.41
2023-04-23T04:07:47.695Z,94851.78
2023-04-23T04:10:15.342Z,94843.59
2023-04-23T04:12:42.725Z,94842.81
2023-04-23T04:15:10.409Z,94844.75
2023-04-23T04:17:37.192Z,94854.09
2023-04-23T04:20:04.064Z,94849.41
2023-04-23T04:22:30.689Z,94844.31
2023-04-23T04:24:57.426Z,94849.78
2023-04-23T04:27:24.020Z,94854.81
2023-04-23T04:29:50.666Z,94852.09
2023-04-23T04:32:17.566Z,94861.41
2023-04-23T04:34:44.416Z,94852.78
2023-04-23T04:37:11.138Z,94859.06
2023-04-23T04:39:37.724Z,94857.13
2023-04-23T04:42:04.706Z,94861.81
2023-04-23T04:44:31.397Z,94855.53
2023-04-23T04:46:58.127Z,94864.97
2023-04-23T04:49:24.781Z,94866.88
2023-04-23T04:51:51.355Z,94867.34
2023-04-23T04:54:18.001Z,94875.97
2023-04-23T04:56:44.721Z,94868.53
2023-04-23T04:59:11.328Z,94875.59
2023-04-23T05:01:38.354Z,94885.03
2023-04-23T05:04:05.159Z,94884.22
2023-04-23T05:06:31.992Z,94892.41
2023-04-23T05:08:58.561Z,94893.59
2023-04-23T05:11:25.433Z,94893.13
2023-04-23T05:13:52.034Z,94907.84
2023-04-23T05:16:19.384Z,94907.78
2023-04-23T05:18:46.162Z,94909.56
2023-04-23T05:21:12.780Z,94904.72
2023-04-23T05:23:39.421Z,94906.16
2023-04-23T05:26:06.043Z,94905.19
2023-04-23T05:28:32.972Z,94909.72
2023-04-23T05:30:59.640Z,94904.97
2023-04-23T05:33:30.576Z,94914.22
2023-04-23T05:35:59.891Z,94914.00
2023-04-23T05:38:26.533Z,94914.72
2023-04-23T05:40:53.282Z,94928.28
2023-04-23T05:43:19.982Z,94925.91
2023-04-23T05:45:46.689Z,94926.25
2023-04-23T05:48:13.401Z,94933.31
2023-04-23T05:50:40.256Z,94926.69
2023-04-23T05:53:06.798Z,94933.41
2023-04-23T05:55:33.400Z,94936.56
2023-04-23T05:57:59.985Z,94935.84
2023-04-23T06:00:26.655Z,94939.47
2023-04-23T06:02:53.728Z,94941.50
2023-04-23T06:05:20.920Z,94939.63
2023-04-23T06:07:47.744Z,94946.78
2023-04-23T06:10:14.406Z,94935.56
2023-04-23T06:12:43.846Z,94943.16
2023-04-23T06:15:10.798Z,94947.94
2023-04-23T06:17:37.716Z,94945.72
2023-04-23T06:20:05.340Z,94953.13
2023-04-23T06:22:32.423Z,94952.41
2023-04-23T06:24:59.051Z,94953.97
2023-04-23T06:27:25.829Z,94954.44
2023-04-23T06:29:53.592Z,94952.13
2023-04-23T06:32:20.617Z,94956.09
2023-04-23T06:35:00.302Z,94956.88
2023-04-23T06:37:29.670Z,94952.56
2023-04-23T06:39:56.684Z,94958.56
2023-04-23T06:42:23.435Z,94958.31
2023-04-23T06:45:06.308Z,94963.34
2023-04-23T06:47:33.475Z,94955.41
2023-04-23T06:50:00.110Z,94958.84
2023-04-23T06:52:27.173Z,94960.25
2023-04-23T06:54:53.775Z,94958.22
2023-04-23T06:57:20.427Z,94952.59
2023-04-23T06:59:47.407Z,94956.38
2023-04-23T07:02:15.062Z,94952.50
2023-04-23T07:04:42.095Z,94958.41
2023-04-23T07:07:09.092Z,94954.78
2023-04-23T07:09:35.829Z,94961.75
2023-04-23T07:12:02.817Z,94967.91
2023-04-23T07:14:29.522Z,94951.00
2023-04-23T07:16:56.222Z,94947.38
2023-04-23T07:19:22.836Z,94953.53
2023-04-23T07:21:49.413Z,94958.56
2023-04-23T07:24:15.968Z,94955.38
2023-04-23T07:26:42.828Z,94952.97
2023-04-23T07:29:09.419Z,94953.78
2023-04-23T07:31:36.882Z,94944.00
2023-04-23T07:34:03.494Z,94943.66
2023-04-23T07:36:30.085Z,94941.03
2023-04-23T07:38:56.674Z,94944.22
2023-04-23T07:41:23.402Z,94945.78
2023-04-23T07:43:50.174Z,94941.50
2023-04-23T07:46:16.878Z,94941.50
2023-04-23T07:48:43.730Z,94942.81
2023-04-23T07:51:10.348Z,94946.41
2023-04-23T07:53:37.015Z,94940.25
2023-04-23T07:59:23.335Z,94943.25
2023-04-23T08:01:50.021Z,94944.22
2023-04-23T08:04:16.841Z,94941.66
2023-04-23T08:06:43.688Z,94947.31
2023-04-23T08:09:10.231Z,94941.94
2023-04-23T08:11:36.943Z,94941.22
2023-04-23T08:14:03.589Z,94942.19
2023-04-23T08:16:31.080Z,94942.00
2023-04-23T08:19:04.726Z,94942.53
2023-04-23T08:21:33.122Z,94942.66
2023-04-23T08:23:59.775Z,94935.72
2023-04-23T08:26:26.510Z,94932.69
2023-04-23T08:28:53.092Z,94939.84
2023-04-23T08:31:26.368Z,94946.91
2023-04-23T08:33:53.994Z,94940.75
2023-04-23T08:36:20.783Z,94936.41
2023-04-23T08:38:47.467Z,94936.00
2023-04-23T08:41:15.497Z,94934.41
2023-04-23T08:43:47.462Z,94930.53
2023-04-23T08:46:14.367Z,94929.75
2023-04-23T08:48:42.031Z,94920.72
2023-04-23T08:51:10.352Z,94914.13
2023-04-23T08:53:38.476Z,94922.13
2023-04-23T08:56:08.299Z,94925.91
2023-04-23T08:58:36.098Z,94922.63
2023-04-23T09:01:03.544Z,94921.28
2023-04-23T09:03:30.680Z,94922.56
2023-04-23T09:05:57.780Z,94926.66
2023-04-23T09:08:24.521Z,94929.28
2023-04-23T09:10:52.470Z,94931.13
2023-04-23T09:13:19.454Z,94920.38
2023-04-23T09:15:46.095Z,94914.38
2023-04-23T09:18:12.869Z,94913.16
2023-04-23T09:20:39.454Z,94910.22
2023-04-23T09:23:09.054Z,94907.31
2023-04-23T09:25:35.947Z,94905.97
2023-04-23T09:28:08.342Z,94902.97
2023-04-23T09:30:45.010Z,94894.88
2023-04-23T09:33:12.932Z,94901.66
2023-04-23T09:35:40.815Z,94904.13
2023-04-23T09:38:07.904Z,94896.03
2023-04-23T09:40:34.628Z,94884.72
2023-04-23T09:43:04.142Z,94886.41
2023-04-23T09:45:31.118Z,94878.72
2023-04-23T09:47:58.165Z,94880.81
2023-04-23T09:50:38.930Z,94875.09
2023-04-23T09:53:08.153Z,94885.06
2023-04-23T09:55:37.182Z,94877.78
2023-04-23T09:58:11.553Z,94877.91
2023-04-23T10:00:39.756Z,94876.81
2023-04-23T10:03:07.656Z,94875.72
2023-04-23T10:05:50.512Z,94867.03
2023-04-23T10:08:25.315Z,94869.97
2023-04-23T10:11:05.994Z,94868.84
2023-04-23T10:13:39.007Z,94861.06
2023-04-23T10:16:20.773Z,94859.94
2023-04-23T10:18:52.032Z,94861.13
2023-04-23T10:21:19.955Z,94853.31
2023-04-23T10:23:50.225Z,94853.38
2023-04-23T10:26:17.295Z,94848.72
2023-04-23T10:28:47.703Z,94848.34
2023-04-23T10:31:14.999Z,94853.91
2023-04-23T10:33:56.128Z,94850.41
2023-04-23T10:36:27.121Z,94847.28
2023-04-23T10:38:58.412Z,94835.94
2023-04-23T10:41:34.136Z,94823.81
2023-04-23T10:44:00.702Z,94812.50
2023-04-23T10:46:36.983Z,94810.59
2023-04-23T10:49:15.370Z,94819.31
2023-04-23T10:52:17.942Z,94817.41
2023-04-23T10:54:33.877Z,94820.22
2023-04-23T10:57:07.497Z,94808.84
2023-04-23T10:59:36.140Z,94807.69
2023-04-23T11:02:10.054Z,94808.47
2023-04-23T11:04:42.772Z,94799.84
2023-04-23T11:07:11.148Z,94790.81
2023-04-23T11:09:48.951Z,94785.31
2023-04-23T11:12:24.458Z,94782.53
2023-04-23T11:14:52.740Z,94782.56
2023-04-23T11:17:31.569Z,94779.78
2023-04-23T11:20:04.169Z,94772.31
2023-04-23T11:22:38.553Z,94766.41
2023-04-23T11:25:09.874Z,94760.50
2023-04-23T11:27:39.714Z,94752.28
2023-04-23T11:30:11.521Z,94745.59
2023-04-23T11:32:40.008Z,94739.72
2023-04-23T11:35:09.173Z,94731.03
2023-04-23T11:37:42.208Z,94748.72
2023-04-23T11:40:13.718Z,94736.13
2023-04-23T11:42:48.520Z,94742.03
2023-04-23T11:45:23.555Z,94729.00
2023-04-23T11:47:52.576Z,94720.31
2023-04-23T11:50:20.938Z,94723.44
2023-04-23T11:52:48.224Z,94717.53
2023-04-23T11:55:15.532Z,94716.72
2023-04-23T11:57:46.607Z,94724.16
2023-04-23T12:00:18.215Z,94715.47
2023-04-23T12:03:04.755Z,94707.56
2023-04-23T12:05:37.286Z,94705.16
2023-04-23T12:08:08.612Z,94702.72
2023-04-23T12:10:42.846Z,94694.03
2023-04-23T12:13:14.648Z,94690.41
2023-04-23T12:16:09.207Z,94681.28
2023-04-23T12:18:42.371Z,94686.34
2023-04-23T12:21:11.465Z,94676.41
2023-04-23T12:23:39.514Z,94682.63
2023-04-23T12:26:10.669Z,94668.84
2023-04-23T12:28:46.932Z,94672.53
2023-04-23T12:31:19.963Z,94668.81
2023-04-23T12:33:46.625Z,94660.94
2023-04-23T12:36:15.934Z,94662.59
2023-04-23T12:42:06.030Z,94666.69
2023-04-23T12:44:37.096Z,94657.19
2023-04-23T12:47:08.481Z,94652.78
2023-04-23T12:49:36.610Z,94647.56
2023-04-23T12:52:04.067Z,94636.16
2023-04-23T12:54:33.152Z,94631.75
2023-04-23T12:57:01.038Z,94631.69
2023-04-23T12:59:27.650Z,94628.94
2023-04-23T13:01:54.691Z,94626.50
2023-04-23T13:04:21.482Z,94623.81
2023-04-23T13:06:48.371Z,94622.28
2023-04-23T13:09:15.067Z,94618.47
2023-04-23T13:11:41.727Z,94611.41
2023-04-23T13:14:09.501Z,94602.75
2023-04-23T13:16:36.162Z,94593.22
2023-04-23T13:19:02.755Z,94589.28
2023-04-23T13:21:29.411Z,94589.91
2023-04-23T13:23:57.141Z,94576.28
2023-04-23T13:26:23.936Z,94577.53
2023-04-23T13:28:50.752Z,94567.72
2023-04-23T13:31:17.767Z,94568.56
2023-04-23T13:33:44.352Z,94563.50
2023-04-23T13:36:11.017Z,94563.91
2023-04-23T13:38:37.641Z,94556.78
2023-04-23T13:41:04.244Z,94545.03
2023-04-23T13:43:30.902Z,94545.44
2023-04-23T13:45:57.546Z,94541.47
2023-04-23T13:48:24.174Z,94536.38
2023-04-23T13:50:50.730Z,94531.97
2023-04-23T13:53:17.298Z,94522.88
2023-04-23T13:55:43.940Z,94510.09
2023-04-23T13:58:12.245Z,94512.47
2023-04-23T14:00:39.298Z,94511.53
2023-04-23T14:03:05.941Z,94504.81
2023-04-23T14:05:32.700Z,94510.28
2023-04-23T14:07:59.372Z,94504.81
2023-04-23T14:10:26.254Z,94496.25
2023-04-23T14:12:53.116Z,94502.22
2023-04-23T14:15:20.157Z,94496.75
2023-04-23T14:17:47.317Z,94503.03
2023-04-23T14:20:14.366Z,94501.78
2023-04-23T14:22:41.771Z,94495.03
2023-04-23T14:25:10.757Z,94484.63
2023-04-23T14:27:41.268Z,94487.59
2023-04-23T14:30:15.746Z,94473.56
2023-04-23T14:32:42.642Z,94473.63
2023-04-23T14:35:09.707Z,94472.56
2023-04-23T14:37:39.291Z,94473.41
2023-04-23T14:40:06.450Z,94478.34
2023-04-23T14:42:33.200Z,94483.81
2023-04-23T14:45:02.280Z,94471.44
2023-04-23T14:47:28.882Z,94474.09
2023-04-23T14:49:55.616Z,94475.53
2023-04-23T14:52:22.204Z,94469.47
2023-04-23T14:54:48.938Z,94452.72
2023-04-23T14:57:15.699Z,94459.09
2023-04-23T14:59:42.458Z,94460.88
2023-04-23T15:02:09.442Z,94457.41
2023-04-23T15:04:36.329Z,94445.50
2023-04-23T15:07:03.014Z,94446.53
2023-04-23T15:09:29.571Z,94441.25
2023-04-23T15:11:56.210Z,94432.88
2023-04-23T15:14:31.320Z,94441.28
2023-04-23T15:16:58.086Z,94436.72
2023-04-23T15:19:24.725Z,94438.13
2023-04-23T15:21:51.336Z,94438.69
2023-04-23T15:24:17.986Z,94433.78
2023-04-23T15:26:44.816Z,94437.16
2023-04-23T15:29:12.041Z,94455.13
2023-04-23T15:31:38.858Z,94456.50
2023-04-23T15:34:05.776Z,94467.75
2023-04-23T15:36:32.482Z,94469.09
2023-04-23T15:38:59.156Z,94481.44
2023-04-23T15:41:25.729Z,94480.81
2023-04-23T15:43:52.306Z,94486.09
2023-04-23T15:46:19.129Z,94491.31
2023-04-23T15:48:45.734Z,94489.03
2023-04-23T15:51:12.470Z,94494.22
2023-04-23T15:53:39.128Z,94487.19
2023-04-23T15:56:05.689Z,94489.59
2023-04-23T15:58:32.276Z,94475.50
2023-04-23T16:00:59.014Z,94475.91
2023-04-23T16:03:25.769Z,94460.56
2023-04-23T16:05:52.556Z,94449.97
2023-04-23T16:08:19.491Z,94437.75
2023-04-23T16:10:46.193Z,94427.53
2023-04-23T16:13:12.756Z,94412.91
2023-04-23T16:15:39.484Z,94418.75
2023-04-23T16:18:06.343Z,94418.28
2023-04-23T16:20:33.055Z,94407.91
2023-04-23T16:22:59.706Z,94397.78
2023-04-23T16:25:26.503Z,94403.34
2023-04-23T16:27:53.582Z,94393.22
2023-04-23T16:30:20.158Z,94377.03
2023-04-23T16:32:46.764Z,94377.88
2023-04-23T16:35:13.308Z,94376.16
2023-04-23T16:37:39.918Z,94361.28
2023-04-23T16:40:07.319Z,94357.09
2023-04-23T16:42:34.005Z,94361.78
2023-04-23T16:45:00.561Z,94355.69
2023-04-23T16:47:27.246Z,94363.06
2023-04-23T16:49:53.919Z,94362.84
2023-04-23T16:52:20.826Z,94371.34
2023-04-23T16:54:47.544Z,94385.00
2023-04-23T16:57:14.253Z,94397.00
2023-04-23T16:59:41.062Z,94401.47
2023-04-23T17:02:07.848Z,94406.34
2023-04-23T17:04:34.811Z,94415.47
2023-04-23T17:07:01.840Z,94410.84
2023-04-23T17:09:29.386Z,94420.38
2023-04-23T17:11:56.176Z,94414.16
2023-04-23T17:14:22.819Z,94405.56
2023-04-23T17:16:49.473Z,94394.19
2023-04-23T17:19:16.303Z,94389.53
2023-04-23T17:21:42.990Z,94381.72
2023-04-23T17:24:09.632Z,94380.97
2023-04-23T17:26:36.382Z,94380.59
2023-04-23T17:29:02.927Z,94367.66
2023-04-23T17:31:29.624Z,94356.72
2023-04-23T17:33:57.684Z,94356.72
2023-04-23T17:36:24.265Z,94343.44
2023-04-23T17:38:50.887Z,94330.47
2023-04-23T17:41:17.575Z,94335.22
2023-04-23T17:43:44.569Z,94345.06
2023-04-23T17:46:11.452Z,94350.25
2023-04-23T17:48:38.141Z,94360.44
2023-04-23T17:51:04.748Z,94359.66
2023-04-23T17:53:31.333Z,94360.06
2023-04-23T17:55:57.945Z,94356.53
2023-04-23T17:58:24.528Z,94354.59
2023-04-23T18:00:51.154Z,94342.81
2023-04-23T18:03:17.899Z,94346.34
2023-04-23T18:05:44.533Z,94336.16
2023-04-23T18:08:11.738Z,94329.47
2023-04-23T18:10:38.742Z,94321.66
2023-04-23T18:13:05.388Z,94323.59
2023-04-23T18:15:32.212Z,94322.81
2023-04-23T18:17:59.408Z,94337.72
2023-04-23T18:20:26.182Z,94327.09
2023-04-23T18:22:53.163Z,94338.47
2023-04-23T18:25:20.047Z,94341.19
2023-04-23T18:27:46.666Z,94349.03
2023-04-23T18:30:13.404Z,94348.22
2023-04-23T18:32:48.546Z,94356.84
2023-04-23T18:35:15.462Z,94354.84
2023-04-23T18:37:47.561Z,94356.41
2023-04-23T18:40:14.333Z,94359.91
2023-04-23T18:42:41.016Z,94365.00
2023-04-23T18:45:08.088Z,94369.66
2023-04-23T18:47:42.910Z,94366.13
2023-04-23T18:50:28.947Z,94362.59
2023-04-23T18:52:55.595Z,94353.97
2023-04-23T18:55:22.168Z,94361.38
2023-04-23T18:57:48.767Z,94359.41
2023-04-23T19:00:16.160Z,94369.97
2023-04-23T19:02:42.812Z,94368.81
2023-04-23T19:05:09.669Z,94386.03
2023-04-23T19:07:36.703Z,94395.41
2023-04-23T19:10:03.670Z,94411.81
2023-04-23T19:12:30.274Z,94425.09
2023-04-23T19:14:56.851Z,94436.03
2023-04-23T19:17:23.579Z,94443.06
2023-04-23T19:19:50.247Z,94487.31
2023-04-23T19:22:16.900Z,94501.78
2023-04-23T19:24:43.552Z,94506.00
2023-04-23T19:27:10.230Z,94502.38
2023-04-23T19:29:37.057Z,94516.34
2023-04-23T19:32:03.642Z,94524.81
2023-04-23T19:34:30.214Z,94523.16
2023-04-23T19:36:56.950Z,94522.59
2023-04-23T19:39:23.860Z,94514.00
2023-04-23T19:41:50.664Z,94518.19
2023-04-23T19:44:17.545Z,94522.28
2023-04-23T19:46:44.438Z,94537.75
2023-04-23T19:49:11.079Z,94561.00
2023-04-23T19:51:38.353Z,94568.63
2023-04-23T19:54:05.271Z,94575.44
2023-04-23T19:56:34.670Z,94578.38
2023-04-23T19:59:01.336Z,94581.28
2023-04-23T20:01:28.620Z,94592.78
2023-04-23T20:03:55.678Z,94592.59
2023-04-23T20:06:22.348Z,94599.34
2023-04-23T20:08:49.076Z,94596.81
2023-04-23T20:11:15.666Z,94583.31
2023-04-23T20:13:42.269Z,94577.63
2023-04-23T20:16:08.977Z,94587.19
2023-04-23T20:18:35.675Z,94583.53
2023-04-23T20:21:02.318Z,94586.13
2023-04-23T20:23:28.888Z,94574.69
2023-04-23T20:25:55.477Z,94583.16
2023-04-23T20:28:22.156Z,94572.16
2023-04-23T20:30:48.885Z,94571.63
2023-04-23T20:33:16.176Z,94580.53
2023-04-23T20:35:42.867Z,94578.16
2023-04-23T20:38:09.481Z,94559.41
2023-04-23T20:40:36.298Z,94566.47
2023-04-23T20:43:03.038Z,94571.91
2023-04-23T20:45:29.610Z,94567.66
2023-04-23T20:47:56.189Z,94584.13
2023-04-23T20:50:23.535Z,94600.13
2023-04-23T20:52:50.143Z,94596.25
2023-04-23T20:55:16.887Z,94596.59
2023-04-23T20:57:43.459Z,94596.59
2023-04-23T21:00:10.321Z,94589.13
2023-04-23T21:02:37.473Z,94593.38
2023-04-23T21:05:06.332Z,94597.59
2023-04-23T21:07:33.597Z,94598.72
2023-04-23T21:10:00.276Z,94592.78
2023-04-23T21:12:26.965Z,94586.91
2023-04-23T21:14:54.489Z,94591.91
2023-04-23T21:17:21.223Z,94589.53
2023-04-23T21:19:48.051Z,94585.25
2023-04-23T21:22:14.769Z,94597.28
2023-04-23T21:24:41.440Z,94582.50
2023-04-23T21:27:09.422Z,94587.97
2023-04-23T21:29:36.162Z,94582.50
2023-04-23T21:32:02.887Z,94583.28
2023-04-23T21:34:29.531Z,94589.53
2023-04-23T21:36:56.145Z,94587.97
2023-04-23T21:39:22.802Z,94592.59
2023-04-23T21:41:49.646Z,94592.19
2023-04-23T21:44:16.847Z,94599.56
2023-04-23T21:46:43.518Z,94597.22
2023-04-23T21:49:10.346Z,94598.69
2023-04-23T21:51:37.212Z,94596.25
2023-04-23T21:54:04.547Z,94593.09
2023-04-23T21:56:31.373Z,94599.97
2023-04-23T21:58:58.053Z,94591.34
2023-04-23T22:01:24.809Z,94594.44
2023-04-23T22:03:51.578Z,94590.47
2023-04-23T22:06:18.765Z,94589.59
2023-04-23T22:08:46.230Z,94591.88
2023-04-23T22:11:13.453Z,94588.72
2023-04-23T22:13:40.218Z,94588.81
2023-04-23T22:16:13.683Z,94596.19
2023-04-23T22:18:51.430Z,94598.09
2023-04-23T22:21:18.025Z,94591.09
2023-04-23T22:23:44.647Z,94593.72
2023-04-23T22:26:11.345Z,94595.31
2023-04-23T22:28:37.939Z,94587.56
2023-04-23T22:31:04.920Z,94589.16
2023-04-23T22:33:31.548Z,94583.34
2023-04-23T22:35:58.128Z,94587.31
2023-04-23T22:38:24.768Z,94583.78
2023-04-23T22:40:51.364Z,94585.81
2023-04-23T22:43:17.915Z,94593.63
2023-04-23T22:45:44.564Z,94590.53
2023-04-23T22:48:11.237Z,94591.78
2023-04-23T22:50:37.840Z,94588.25
2023-04-23T22:53:04.388Z,94589.06
2023-04-23T22:55:31.467Z,94589.06
2023-04-23T22:57:58.159Z,94589.84
2023-04-23T23:00:24.794Z,94586.75
2023-04-23T23:02:51.599Z,94585.53
2023-04-23T23:05:18.303Z,94592.13
2023-04-23T23:07:44.920Z,94587.81
2023-04-23T23:10:11.571Z,94588.16
2023-04-23T23:12:38.378Z,94586.63
2023-04-23T23:15:06.784Z,94584.25
2023-04-23T23:17:33.405Z,94585.38
2023-04-23T23:20:00.432Z,94581.06
2023-04-23T23:22:27.148Z,94575.59
2023-04-23T23:24:54.580Z,94575.97
2023-04-23T23:27:21.120Z,94574.66
2023-04-23T23:29:47.672Z,94572.91
2023-04-23T23:32:14.308Z,94576.44
2023-04-23T23:34:40.929Z,94575.63
2023-04-23T23:37:07.548Z,94566.94
2023-04-23T23:39:34.150Z,94567.72
2023-04-23T23:42:00.759Z,94564.47
2023-04-23T23:44:27.461Z,94565.97
2023-04-23T23:46:54.320Z,94564.75
2023-04-23T23:49:20.944Z,94561.59
2023-04-23T23:51:47.673Z,94563.88
2023-04-23T23:54:14.465Z,94559.91
2023-04-23T23:56:41.102Z,94561.41
2023-04-23T23:59:07.694Z,94553.16
